createdAt,value
2022-08-17T00:00:33.219Z,95481.69
2022-08-17T00:03:05.732Z,95491.16
2022-08-17T00:05:35.704Z,95486.66
2022-08-17T00:08:04.056Z,95488.91
2022-08-17T00:10:33.571Z,95489.34
2022-08-17T00:13:03.976Z,95487.78
2022-08-17T00:15:32.162Z,95488.09
2022-08-17T00:18:00.338Z,95494.09
2022-08-17T00:20:34.725Z,95490.91
2022-08-17T00:23:07.234Z,95482.31
2022-08-17T00:25:36.783Z,95488.34
2022-08-17T00:28:06.243Z,95493.25
2022-08-17T00:30:53.196Z,95490.06
2022-08-17T00:33:23.981Z,95485.59
2022-08-17T00:35:52.329Z,95489.09
2022-08-17T00:38:20.658Z,95495.75
2022-08-17T00:40:51.695Z,95489.41
2022-08-17T00:43:22.439Z,95491.59
2022-08-17T00:45:50.665Z,95505.69
2022-08-17T00:48:30.211Z,95502.81
2022-08-17T00:51:05.261Z,95498.34
2022-08-17T00:53:34.209Z,95492.16
2022-08-17T00:56:04.900Z,95498.34
2022-08-17T00:58:36.472Z,95492.44
2022-08-17T01:01:06.017Z,95490.84
2022-08-17T01:03:34.278Z,95495.28
2022-08-17T01:06:02.476Z,95490.19
2022-08-17T01:08:31.248Z,95487.78
2022-08-17T01:11:04.182Z,95486.50
2022-08-17T01:13:40.722Z,95486.50
2022-08-17T01:16:13.293Z,95499.16
2022-08-17T01:18:42.266Z,95492.81
2022-08-17T01:21:12.344Z,95485.34
2022-08-17T01:23:42.538Z,95486.63
2022-08-17T01:26:10.615Z,95487.72
2022-08-17T01:28:53.850Z,95494.81
2022-08-17T01:31:23.866Z,95493.84
2022-08-17T01:33:52.016Z,95489.56
2022-08-17T01:36:20.450Z,95494.50
2022-08-17T01:38:49.969Z,95495.59
2022-08-17T01:41:18.225Z,95498.63
2022-08-17T01:43:47.404Z,95500.03
2022-08-17T01:46:16.714Z,95495.25
2022-08-17T01:48:47.579Z,95496.34
2022-08-17T01:51:16.402Z,95507.75
2022-08-17T01:53:46.732Z,95501.06
2022-08-17T01:56:17.967Z,95503.25
2022-08-17T01:58:46.281Z,95492.28
2022-08-17T02:01:17.711Z,95484.31
2022-08-17T02:03:59.193Z,95487.63
2022-08-17T02:06:29.654Z,95488.25
2022-08-17T02:09:03.152Z,95483.94
2022-08-17T02:11:33.444Z,95480.47
2022-08-17T02:14:04.056Z,95484.53
2022-08-17T02:16:37.565Z,95485.66
2022-08-17T02:19:07.204Z,95484.53
2022-08-17T02:21:35.368Z,95481.56
2022-08-17T02:24:03.773Z,95480.25
2022-08-17T02:26:33.392Z,95479.28
2022-08-17T02:29:01.500Z,95479.88
2022-08-17T02:31:31.239Z,95487.16
2022-08-17T02:34:04.055Z,95477.47
2022-08-17T02:36:33.911Z,95476.19
2022-08-17T02:39:02.519Z,95474.59
2022-08-17T02:41:31.049Z,95475.22
2022-08-17T02:44:00.860Z,95472.00
2022-08-17T02:46:29.216Z,95471.50
2022-08-17T02:48:57.584Z,95471.78
2022-08-17T02:51:25.784Z,95466.69
2022-08-17T02:54:39.106Z,95466.22
2022-08-17T02:56:42.088Z,95468.72
2022-08-17T02:59:11.955Z,95463.44
2022-08-17T03:01:40.589Z,95461.34
2022-08-17T03:04:08.868Z,95458.16
2022-08-17T03:06:37.546Z,95455.25
2022-08-17T03:09:05.874Z,95457.16
2022-08-17T03:11:34.370Z,95456.38
2022-08-17T03:14:02.505Z,95464.75
2022-08-17T03:16:31.980Z,95463.16
2022-08-17T03:19:01.591Z,95461.84
2022-08-17T03:21:29.723Z,95461.34
2022-08-17T03:23:58.269Z,95462.44
2022-08-17T03:26:29.840Z,95456.25
2022-08-17T03:28:58.056Z,95457.38
2022-08-17T03:31:26.265Z,95454.19
2022-08-17T03:33:56.491Z,95456.09
2022-08-17T03:36:24.808Z,95457.47
2022-08-17T03:38:53.391Z,95455.06
2022-08-17T03:41:23.246Z,95455.38
2022-08-17T03:43:51.445Z,95454.09
2022-08-17T03:46:36.798Z,95459.78
2022-08-17T03:49:24.369Z,95461.66
2022-08-17T03:52:10.181Z,95455.50
2022-08-17T03:54:55.403Z,95458.97
2022-08-17T03:57:23.559Z,95458.47
2022-08-17T03:59:51.654Z,95457.66
2022-08-17T04:02:21.068Z,95448.81
2022-08-17T04:04:51.357Z,95448.28
2022-08-17T04:07:19.932Z,95451.78
2022-08-17T04:09:48.115Z,95453.69
2022-08-17T04:12:16.338Z,95450.69
2022-08-17T04:14:52.149Z,95458.19
2022-08-17T04:17:22.996Z,95459.78
2022-08-17T04:19:53.098Z,95451.41
2022-08-17T04:22:32.089Z,95455.69
2022-08-17T04:25:09.148Z,95462.34
2022-08-17T04:27:37.422Z,95457.47
2022-08-17T04:30:07.463Z,95455.78
2022-08-17T04:33:03.605Z,95460.25
2022-08-17T04:35:36.816Z,95461.75
2022-08-17T04:38:05.186Z,95464.34
2022-08-17T04:40:50.560Z,95462.66
2022-08-17T04:43:19.782Z,95468.41
2022-08-17T04:45:55.148Z,95461.53
2022-08-17T04:48:29.770Z,95464.91
2022-08-17T04:51:10.022Z,95474.66
2022-08-17T04:53:39.615Z,95470.47
2022-08-17T04:56:08.271Z,95470.56
2022-08-17T04:58:44.716Z,95472.41
2022-08-17T05:01:13.542Z,95467.09
2022-08-17T05:03:42.157Z,95483.34
2022-08-17T05:06:11.954Z,95479.91
2022-08-17T05:08:40.264Z,95481.06
2022-08-17T05:11:08.502Z,95490.00
2022-08-17T05:13:36.650Z,95494.03
2022-08-17T05:16:05.325Z,95491.91
2022-08-17T05:18:33.707Z,95490.22
2022-08-17T05:21:01.854Z,95493.16
2022-08-17T05:23:41.875Z,95490.38
2022-08-17T05:26:21.970Z,95491.06
2022-08-17T05:28:57.201Z,95499.56
2022-08-17T05:31:28.817Z,95499.28
2022-08-17T05:33:57.064Z,95508.66
2022-08-17T05:36:41.622Z,95501.56
2022-08-17T05:39:15.790Z,95499.22
2022-08-17T05:41:49.094Z,95488.78
2022-08-17T05:44:17.652Z,95497.69
2022-08-17T05:46:48.810Z,95494.97
2022-08-17T05:49:17.400Z,95502.13
2022-08-17T05:52:14.882Z,95500.81
2022-08-17T05:54:56.288Z,95507.00
2022-08-17T05:57:56.106Z,95507.47
2022-08-17T06:00:30.877Z,95510.28
2022-08-17T06:03:08.575Z,95512.91
2022-08-17T06:05:46.276Z,95511.81
2022-08-17T06:08:18.743Z,95515.41
2022-08-17T06:10:53.292Z,95514.94
2022-08-17T06:13:24.219Z,95510.09
2022-08-17T06:15:57.677Z,95520.00
2022-08-17T06:18:27.993Z,95512.31
2022-08-17T06:20:57.709Z,95520.31
2022-08-17T06:23:27.637Z,95516.16
2022-08-17T06:26:03.867Z,95523.22
2022-08-17T06:28:37.204Z,95524.97
2022-08-17T06:31:07.541Z,95529.75
2022-08-17T06:33:37.402Z,95525.25
2022-08-17T06:36:15.860Z,95539.78
2022-08-17T06:38:47.915Z,95525.25
2022-08-17T06:41:19.841Z,95528.97
2022-08-17T06:43:52.261Z,95520.69
2022-08-17T06:46:23.261Z,95525.88
2022-08-17T06:48:58.290Z,95524.00
2022-08-17T06:51:29.411Z,95523.47
2022-08-17T06:54:01.325Z,95524.84
2022-08-17T06:56:54.251Z,95526.13
2022-08-17T06:59:25.491Z,95533.78
2022-08-17T07:01:56.466Z,95529.22
2022-08-17T07:04:27.373Z,95521.56
2022-08-17T07:06:58.270Z,95532.13
2022-08-17T07:09:29.572Z,95528.56
2022-08-17T07:12:00.638Z,95526.53
2022-08-17T07:14:36.602Z,95525.28
2022-08-17T07:17:08.083Z,95524.84
2022-08-17T07:19:38.254Z,95525.94
2022-08-17T07:22:14.093Z,95525.25
2022-08-17T07:24:47.743Z,95523.28
2022-08-17T07:27:21.330Z,95526.41
2022-08-17T07:29:53.724Z,95520.16
2022-08-17T07:32:25.453Z,95528.31
2022-08-17T07:35:15.319Z,95519.97
2022-08-17T07:37:45.585Z,95519.81
2022-08-17T07:40:19.639Z,95523.13
2022-08-17T07:43:19.930Z,95525.66
2022-08-17T07:46:33.309Z,95538.66
2022-08-17T07:49:33.693Z,95537.31
2022-08-17T07:52:24.856Z,95532.47
2022-08-17T07:54:51.922Z,95543.44
2022-08-17T07:57:34.594Z,95537.31
2022-08-17T08:00:32.480Z,95548.03
2022-08-17T08:03:03.720Z,95550.53
2022-08-17T08:05:50.540Z,95550.38
2022-08-17T08:08:26.870Z,95548.47
2022-08-17T08:11:08.328Z,95554.47
2022-08-17T08:13:40.510Z,95563.13
2022-08-17T08:16:27.103Z,95562.75
2022-08-17T08:18:57.957Z,95561.69
2022-08-17T08:21:34.436Z,95560.22
2022-08-17T08:24:17.033Z,95560.16
2022-08-17T08:26:47.708Z,95558.28
2022-08-17T08:29:28.272Z,95564.69
2022-08-17T08:32:02.624Z,95564.44
2022-08-17T08:35:01.386Z,95560.59
2022-08-17T08:37:42.492Z,95562.97
2022-08-17T08:40:16.238Z,95556.03
2022-08-17T08:42:46.828Z,95559.28
2022-08-17T08:45:16.982Z,95555.28
2022-08-17T08:47:57.468Z,95552.06
2022-08-17T08:50:40.425Z,95558.81
2022-08-17T08:53:14.663Z,95558.44
2022-08-17T08:55:49.368Z,95553.31
2022-08-17T08:58:30.653Z,95561.59
2022-08-17T09:01:08.977Z,95555.31
2022-08-17T09:04:18.330Z,95549.50
2022-08-17T09:06:50.882Z,95558.66
2022-08-17T09:09:25.496Z,95567.75
2022-08-17T09:12:02.742Z,95563.47
2022-08-17T09:14:44.877Z,95560.28
2022-08-17T09:17:16.421Z,95567.81
2022-08-17T09:19:49.581Z,95562.28
2022-08-17T09:22:25.218Z,95556.34
2022-08-17T09:24:57.286Z,95549.66
2022-08-17T09:27:28.383Z,95556.75
2022-08-17T09:29:58.904Z,95547.31
2022-08-17T09:32:34.244Z,95540.97
2022-08-17T09:35:10.575Z,95545.19
2022-08-17T09:37:44.314Z,95546.31
2022-08-17T09:40:15.165Z,95545.81
2022-08-17T09:42:46.828Z,95534.72
2022-08-17T09:45:24.900Z,95539.94
2022-08-17T09:47:55.236Z,95542.84
2022-08-17T09:51:03.388Z,95538.81
2022-08-17T09:53:17.575Z,95546.84
2022-08-17T09:55:58.041Z,95543.56
2022-08-17T09:58:30.954Z,95541.94
2022-08-17T10:01:02.129Z,95551.69
2022-08-17T10:03:39.718Z,95539.69
2022-08-17T10:06:13.393Z,95546.94
2022-08-17T10:08:45.168Z,95543.94
2022-08-17T10:11:20.211Z,95541.69
2022-08-17T10:13:52.941Z,95539.47
2022-08-17T10:16:24.488Z,95530.31
2022-08-17T10:19:07.631Z,95526.50
2022-08-17T10:22:01.492Z,95516.25
2022-08-17T10:25:21.068Z,95527.31
2022-08-17T10:27:52.331Z,95518.13
2022-08-17T10:30:22.158Z,95519.00
2022-08-17T10:32:55.211Z,95518.44
2022-08-17T10:35:43.132Z,95508.84
2022-08-17T10:38:38.323Z,95520.00
2022-08-17T10:41:19.171Z,95521.28
2022-08-17T10:44:37.041Z,95519.41
2022-08-17T10:46:52.411Z,95521.69
2022-08-17T10:49:25.844Z,95513.81
2022-08-17T10:51:54.717Z,95522.16
2022-08-17T10:54:38.717Z,95526.06
2022-08-17T10:57:39.011Z,95508.75
2022-08-17T11:00:14.926Z,95517.19
2022-08-17T11:02:49.980Z,95519.81
2022-08-17T11:05:43.486Z,95524.38
2022-08-17T11:08:42.507Z,95509.19
2022-08-17T11:11:20.835Z,95505.34
2022-08-17T11:13:52.774Z,95503.81
2022-08-17T11:16:39.149Z,95511.91
2022-08-17T11:19:32.700Z,95513.13
2022-08-17T11:22:18.387Z,95492.75
2022-08-17T11:24:47.793Z,95502.16
2022-08-17T11:27:25.993Z,95515.91
2022-08-17T11:30:01.579Z,95511.03
2022-08-17T11:32:33.885Z,95504.63
2022-08-17T11:35:22.216Z,95498.50
2022-08-17T11:37:55.069Z,95503.25
2022-08-17T11:40:39.058Z,95501.56
2022-08-17T11:43:30.150Z,95493.16
2022-08-17T11:46:08.251Z,95493.25
2022-08-17T11:48:56.247Z,95484.84
2022-08-17T11:51:34.561Z,95486.72
2022-08-17T11:56:59.072Z,95475.03
2022-08-17T11:59:59.745Z,95484.75
2022-08-17T12:02:38.856Z,95489.81
2022-08-17T12:05:28.771Z,95489.78
2022-08-17T12:08:15.272Z,95490.94
2022-08-17T12:10:51.623Z,95487.81
2022-08-17T12:13:20.082Z,95494.63
2022-08-17T12:15:52.775Z,95498.78
2022-08-17T12:18:22.199Z,95497.28
2022-08-17T12:21:00.987Z,95504.38
2022-08-17T12:23:35.355Z,95500.59
2022-08-17T12:26:05.912Z,95506.13
2022-08-17T12:28:35.095Z,95504.94
2022-08-17T12:31:05.900Z,95502.66
2022-08-17T12:33:34.094Z,95496.84
2022-08-17T12:36:04.024Z,95491.81
2022-08-17T12:38:35.095Z,95484.59
2022-08-17T12:41:25.507Z,95489.41
2022-08-17T12:44:01.580Z,95494.81
2022-08-17T12:46:33.736Z,95494.63
2022-08-17T12:49:15.703Z,95489.38
2022-08-17T12:51:45.493Z,95492.94
2022-08-17T12:54:24.401Z,95498.94
2022-08-17T12:56:52.643Z,95491.25
2022-08-17T12:59:28.643Z,95488.38
2022-08-17T13:02:00.633Z,95488.59
2022-08-17T13:04:29.644Z,95489.97
2022-08-17T13:06:59.982Z,95473.53
2022-08-17T13:09:36.092Z,95470.94
2022-08-17T13:12:09.150Z,95474.19
2022-08-17T13:14:37.365Z,95473.09
2022-08-17T13:17:12.648Z,95457.66
2022-08-17T13:19:48.611Z,95468.63
2022-08-17T13:22:16.761Z,95453.09
2022-08-17T13:24:53.285Z,95452.66
2022-08-17T13:27:21.574Z,95449.44
2022-08-17T13:29:53.169Z,95449.38
2022-08-17T13:32:26.226Z,95450.34
2022-08-17T13:35:12.391Z,95444.06
2022-08-17T13:38:01.423Z,95433.59
2022-08-17T13:40:37.897Z,95439.38
2022-08-17T13:43:06.044Z,95437.06
2022-08-17T13:45:39.285Z,95425.44
2022-08-17T13:48:13.864Z,95431.72
2022-08-17T13:50:43.813Z,95442.34
2022-08-17T13:53:22.782Z,95445.44
2022-08-17T13:55:52.478Z,95452.16
2022-08-17T13:58:21.888Z,95451.28
2022-08-17T14:00:51.697Z,95459.84
2022-08-17T14:03:21.372Z,95451.88
2022-08-17T14:05:50.193Z,95454.97
2022-08-17T14:08:18.847Z,95460.06
2022-08-17T14:10:47.786Z,95457.38
2022-08-17T14:13:18.676Z,95460.22
2022-08-17T14:15:55.063Z,95461.59
2022-08-17T14:18:37.532Z,95459.28
2022-08-17T14:21:14.580Z,95457.50
2022-08-17T14:23:54.652Z,95458.53
2022-08-17T14:26:23.296Z,95450.44
2022-08-17T14:28:54.671Z,95451.97
2022-08-17T14:31:25.041Z,95454.25
2022-08-17T14:33:54.704Z,95447.69
2022-08-17T14:36:22.827Z,95447.63
2022-08-17T14:38:51.088Z,95435.00
2022-08-17T14:41:22.150Z,95431.16
2022-08-17T14:43:51.450Z,95431.53
2022-08-17T14:46:19.623Z,95436.09
2022-08-17T14:48:48.546Z,95428.78
2022-08-17T14:51:18.097Z,95431.84
2022-08-17T14:53:46.554Z,95436.44
2022-08-17T14:56:14.695Z,95422.91
2022-08-17T14:58:43.356Z,95421.72
2022-08-17T15:01:12.018Z,95430.97
2022-08-17T15:03:41.000Z,95433.34
2022-08-17T15:06:09.647Z,95430.00
2022-08-17T15:08:39.194Z,95418.28
2022-08-17T15:11:07.945Z,95423.69
2022-08-17T15:13:52.680Z,95413.66
2022-08-17T15:16:21.598Z,95421.84
2022-08-17T15:18:50.280Z,95418.84
2022-08-17T15:21:18.942Z,95433.91
2022-08-17T15:23:48.960Z,95437.31
2022-08-17T15:26:17.634Z,95421.34
2022-08-17T15:28:48.997Z,95425.44
2022-08-17T15:31:32.313Z,95405.72
2022-08-17T15:34:00.522Z,95414.81
2022-08-17T15:36:29.148Z,95414.59
2022-08-17T15:38:59.019Z,95416.81
2022-08-17T15:41:28.186Z,95416.84
2022-08-17T15:43:56.508Z,95410.84
2022-08-17T15:46:25.687Z,95423.38
2022-08-17T15:48:55.708Z,95426.31
2022-08-17T15:51:26.134Z,95418.72
2022-08-17T15:53:55.675Z,95412.28
2022-08-17T15:56:25.344Z,95411.22
2022-08-17T15:58:54.891Z,95402.59
2022-08-17T16:03:01.639Z,95402.28
2022-08-17T16:04:29.849Z,95407.53
2022-08-17T16:06:58.764Z,95396.25
2022-08-17T16:09:26.959Z,95398.66
2022-08-17T16:11:56.761Z,95393.94
2022-08-17T16:14:30.308Z,95400.41
2022-08-17T16:17:02.728Z,95401.19
2022-08-17T16:19:30.859Z,95400.47
2022-08-17T16:21:59.377Z,95400.22
2022-08-17T16:24:27.615Z,95395.13
2022-08-17T16:26:57.255Z,95391.31
2022-08-17T16:29:25.393Z,95399.25
2022-08-17T16:31:54.030Z,95389.44
2022-08-17T16:34:22.132Z,95389.88
2022-08-17T16:36:55.198Z,95386.72
2022-08-17T16:39:26.259Z,95391.47
2022-08-17T16:41:54.884Z,95396.25
2022-08-17T16:44:25.758Z,95399.41
2022-08-17T16:46:54.250Z,95399.03
2022-08-17T16:49:35.937Z,95405.78
2022-08-17T16:52:07.848Z,95406.22
2022-08-17T16:54:36.454Z,95396.81
2022-08-17T16:57:05.663Z,95404.34
2022-08-17T16:59:41.031Z,95406.34
2022-08-17T17:02:15.507Z,95407.94
2022-08-17T17:04:48.987Z,95413.91
2022-08-17T17:07:25.810Z,95411.94
2022-08-17T17:09:55.599Z,95404.88
2022-08-17T17:13:01.183Z,95410.00
2022-08-17T17:15:18.777Z,95404.88
2022-08-17T17:17:50.675Z,95416.25
2022-08-17T17:20:21.784Z,95401.69
2022-08-17T17:23:01.627Z,95407.19
2022-08-17T17:25:31.505Z,95403.19
2022-08-17T17:28:02.425Z,95411.78
2022-08-17T17:30:34.304Z,95409.00
2022-08-17T17:33:04.988Z,95411.31
2022-08-17T17:35:34.663Z,95408.09
2022-08-17T17:38:05.180Z,95411.19
2022-08-17T17:40:36.934Z,95412.63
2022-08-17T17:43:34.853Z,95407.47
2022-08-17T17:45:57.677Z,95414.44
2022-08-17T17:48:35.813Z,95406.94
2022-08-17T17:51:09.711Z,95410.75
2022-08-17T17:53:43.514Z,95409.09
2022-08-17T17:56:19.606Z,95419.97
2022-08-17T17:59:03.804Z,95425.31
2022-08-17T18:01:42.940Z,95413.41
2022-08-17T18:04:21.090Z,95410.91
2022-08-17T18:07:15.390Z,95407.22
2022-08-17T18:10:01.540Z,95406.28
2022-08-17T18:12:36.181Z,95399.84
2022-08-17T18:15:21.597Z,95395.38
2022-08-17T18:18:22.668Z,95400.31
2022-08-17T18:20:54.137Z,95400.06
2022-08-17T18:23:28.111Z,95396.38
2022-08-17T18:25:56.977Z,95400.47
2022-08-17T18:28:26.582Z,95402.66
2022-08-17T18:31:12.081Z,95400.84
2022-08-17T18:33:42.464Z,95401.78
2022-08-17T18:36:11.489Z,95406.00
2022-08-17T18:38:40.768Z,95399.22
2022-08-17T18:41:20.423Z,95404.56
2022-08-17T18:44:00.417Z,95404.03
2022-08-17T18:46:30.542Z,95402.97
2022-08-17T18:49:01.159Z,95414.00
2022-08-17T18:51:40.996Z,95414.94
2022-08-17T18:54:17.299Z,95409.69
2022-08-17T18:56:49.280Z,95411.06
2022-08-17T18:59:28.005Z,95411.66
2022-08-17T19:02:10.221Z,95406.41
2022-08-17T19:04:59.072Z,95412.09
2022-08-17T19:07:29.605Z,95410.28
2022-08-17T19:10:00.281Z,95410.13
2022-08-17T19:12:33.251Z,95407.94
2022-08-17T19:15:01.522Z,95411.00
2022-08-17T19:17:35.458Z,95414.00
2022-08-17T19:20:09.655Z,95411.75
2022-08-17T19:22:46.661Z,95419.25
2022-08-17T19:25:17.100Z,95420.88
2022-08-17T19:27:49.218Z,95419.81
2022-08-17T19:30:27.843Z,95410.50
2022-08-17T19:32:57.762Z,95417.69
2022-08-17T19:35:30.891Z,95413.03
2022-08-17T19:38:04.056Z,95417.44
2022-08-17T19:40:52.461Z,95419.19
2022-08-17T19:43:24.708Z,95406.53
2022-08-17T19:45:59.519Z,95407.22
2022-08-17T19:48:35.790Z,95407.03
2022-08-17T19:51:07.668Z,95396.31
2022-08-17T19:54:03.876Z,95403.25
2022-08-17T19:56:32.075Z,95401.16
2022-08-17T19:59:02.624Z,95399.00
2022-08-17T20:01:35.908Z,95405.06
2022-08-17T20:04:08.619Z,95409.53
2022-08-17T20:06:40.396Z,95406.59
2022-08-17T20:09:15.258Z,95409.59
2022-08-17T20:11:46.648Z,95410.88
2022-08-17T20:14:16.356Z,95416.00
2022-08-17T20:16:44.479Z,95418.41
2022-08-17T20:19:24.502Z,95420.84
2022-08-17T20:21:56.093Z,95414.31
2022-08-17T20:24:30.225Z,95414.78
2022-08-17T20:27:00.156Z,95420.72
2022-08-17T20:29:37.676Z,95423.19
2022-08-17T20:32:25.294Z,95425.69
2022-08-17T20:35:17.360Z,95425.00
2022-08-17T20:38:02.210Z,95417.97
2022-08-17T20:40:35.572Z,95419.91
2022-08-17T20:43:37.184Z,95409.72
2022-08-17T20:46:13.639Z,95408.81
2022-08-17T20:48:43.250Z,95420.69
2022-08-17T20:51:27.202Z,95419.81
2022-08-17T20:54:27.832Z,95429.09
2022-08-17T20:56:57.684Z,95428.28
2022-08-17T21:00:18.267Z,95436.09
2022-08-17T21:02:47.573Z,95445.13
2022-08-17T21:05:30.848Z,95440.25
2022-08-17T21:08:00.819Z,95439.81
2022-08-17T21:10:36.650Z,95432.88
2022-08-17T21:13:46.343Z,95434.56
2022-08-17T21:16:32.774Z,95447.13
2022-08-17T21:19:07.560Z,95450.31
2022-08-17T21:21:41.782Z,95447.38
2022-08-17T21:24:16.542Z,95450.31
2022-08-17T21:26:51.187Z,95450.03
2022-08-17T21:29:31.859Z,95440.31
2022-08-17T21:32:23.696Z,95444.03
2022-08-17T21:35:28.947Z,95444.22
2022-08-17T21:38:00.141Z,95440.47
2022-08-17T21:40:29.165Z,95443.72
2022-08-17T21:43:00.164Z,95452.19
2022-08-17T21:45:31.271Z,95451.38
2022-08-17T21:48:12.748Z,95454.75
2022-08-17T21:50:42.373Z,95458.25
2022-08-17T21:53:10.820Z,95459.19
2022-08-17T21:55:39.023Z,95460.13
2022-08-17T21:58:13.807Z,95451.84
2022-08-17T22:00:44.338Z,95465.75
2022-08-17T22:03:24.430Z,95464.47
2022-08-17T22:05:52.659Z,95467.88
2022-08-17T22:08:23.737Z,95466.94
2022-08-17T22:10:52.373Z,95469.50
2022-08-17T22:13:23.335Z,95475.72
2022-08-17T22:16:15.574Z,95479.22
2022-08-17T22:18:58.126Z,95472.34
2022-08-17T22:21:26.436Z,95479.84
2022-08-17T22:24:05.261Z,95481.75
2022-08-17T22:27:00.204Z,95482.56
2022-08-17T22:29:57.116Z,95479.38
2022-08-17T22:32:37.810Z,95479.91
2022-08-17T22:35:40.101Z,95476.41
2022-08-17T22:38:26.960Z,95484.53
2022-08-17T22:40:56.137Z,95468.44
2022-08-17T22:43:26.581Z,95472.28
2022-08-17T22:45:58.677Z,95471.63
2022-08-17T22:48:27.792Z,95473.41
2022-08-17T22:51:04.893Z,95477.44
2022-08-17T22:54:04.699Z,95474.56
2022-08-17T22:56:50.096Z,95468.19
2022-08-17T22:59:35.325Z,95467.22
2022-08-17T23:02:22.805Z,95463.81
2022-08-17T23:04:53.021Z,95456.38
2022-08-17T23:07:21.525Z,95458.41
2022-08-17T23:09:50.218Z,95460.63
2022-08-17T23:12:22.766Z,95465.47
2022-08-17T23:14:52.628Z,95467.72
2022-08-17T23:17:22.126Z,95459.91
2022-08-17T23:19:50.302Z,95465.06
2022-08-17T23:22:18.709Z,95465.69
2022-08-17T23:24:49.037Z,95464.31
2022-08-17T23:27:17.317Z,95451.41
2022-08-17T23:29:47.151Z,95451.28
2022-08-17T23:32:16.312Z,95458.47
2022-08-17T23:34:48.249Z,95456.28
2022-08-17T23:37:16.869Z,95458.19
2022-08-17T23:39:45.819Z,95447.09
2022-08-17T23:42:15.853Z,95446.94
2022-08-17T23:44:44.104Z,95463.50
2022-08-17T23:47:12.261Z,95455.56
2022-08-17T23:49:41.439Z,95452.72
2022-08-17T23:52:12.693Z,95451.81
2022-08-17T23:54:44.700Z,95450.06
2022-08-17T23:57:13.324Z,95451.50
2022-08-17T23:59:43.885Z,95452.81
